Latest Weather Observations for Lucas Heights (ANSTO)
Issued at 11:41 pm EST Saturday 2 May 2026 (issued every 10 minutes, with the page automatically refreshed every 10 minutes)
| Station Details | ID: 066023 | Name: LUCAS HEIGHTS (ANSTO) | Lat: -34.05 | Lon: 150.98 | Height: 140.0 m |
| Date/Time EST |
Temp °C |
App Temp °C |
Dew Point °C |
Rel Hum % |
Delta-T °C |
Wind | Press QNH hPa |
Press MSL hPa |
Rain since 9am mm |
||||
|---|---|---|---|---|---|---|---|---|---|---|---|---|---|
| Dir | Spd km/h |
Gust km/h |
Spd kts |
Gust kts |
|||||||||
| 02/11:30pm | 17.1 | 15.7 | 14.5 | 85 | 1.5 | N | 15 | 17 | 8 | 9 | 1024.0 | - | 0.0 |
| 02/11:15pm | 17.1 | 15.6 | 14.3 | 83 | 1.6 | N | 15 | 17 | 8 | 9 | 1024.0 | - | 0.0 |
| 02/11:00pm | 17.5 | 16.5 | 14.5 | 82 | 1.7 | N | 13 | 13 | 7 | 7 | 1024.1 | - | 0.0 |
| 02/10:45pm | 17.9 | 17.3 | 14.6 | 81 | 1.9 | N | 11 | 17 | 6 | 9 | 1024.2 | - | 0.0 |
| 02/10:30pm | 18.4 | 17.5 | 14.8 | 79 | 2.1 | N | 13 | 17 | 7 | 9 | 1024.2 | - | 0.0 |
| 02/10:15pm | 18.8 | 17.9 | 14.9 | 78 | 2.3 | N | 13 | 19 | 7 | 10 | 1024.5 | - | 0.0 |
| 02/10:00pm | 19.1 | 18.3 | 15.0 | 77 | 2.4 | NNE | 13 | 20 | 7 | 11 | 1024.5 | - | 0.0 |
| 02/09:45pm | 19.3 | 17.7 | 15.1 | 76 | 2.5 | NNE | 17 | 22 | 9 | 12 | 1024.4 | - | 0.0 |
| 02/09:30pm | 19.5 | 17.6 | 15.1 | 76 | 2.6 | NNE | 19 | 26 | 10 | 14 | 1024.2 | - | 0.0 |
| 02/09:15pm | 19.5 | 17.6 | 15.1 | 76 | 2.6 | NNE | 19 | 28 | 10 | 15 | 1024.3 | - | 0.0 |
| 02/09:00pm | 19.5 | 17.4 | 15.1 | 76 | 2.6 | NNE | 20 | 30 | 11 | 16 | 1024.3 | - | 0.0 |
| 02/08:45pm | 19.4 | 17.8 | 14.9 | 75 | 2.6 | NNE | 17 | 26 | 9 | 14 | 1024.4 | - | 0.0 |
| 02/08:30pm | 19.4 | 17.7 | 14.8 | 75 | 2.7 | NNE | 17 | 24 | 9 | 13 | 1024.3 | - | 0.0 |
| 02/08:15pm | 19.5 | 17.8 | 14.8 | 74 | 2.8 | NNE | 17 | 26 | 9 | 14 | 1024.1 | - | 0.0 |
| 02/08:00pm | 19.8 | 18.2 | 15.0 | 74 | 2.8 | NNE | 17 | 24 | 9 | 13 | 1024.0 | - | 0.0 |
| 02/07:45pm | 19.7 | 18.1 | 15.0 | 74 | 2.8 | NNE | 17 | 24 | 9 | 13 | 1023.9 | - | 0.0 |
| 02/07:30pm | 19.9 | 18.4 | 15.2 | 74 | 2.8 | NE | 17 | 26 | 9 | 14 | 1023.8 | - | 0.0 |
| 02/07:15pm | 19.8 | 18.3 | 15.4 | 76 | 2.6 | NNE | 17 | 24 | 9 | 13 | 1023.9 | - | 0.0 |
| 02/07:00pm | 19.8 | 18.4 | 15.5 | 76 | 2.6 | NNE | 17 | 24 | 9 | 13 | 1023.9 | - | 0.0 |
| 02/06:45pm | 19.9 | 18.1 | 15.5 | 76 | 2.6 | NNE | 19 | 28 | 10 | 15 | 1023.7 | - | 0.0 |
| 02/06:30pm | 19.8 | 18.0 | 15.4 | 76 | 2.6 | NNE | 19 | 24 | 10 | 13 | 1023.8 | - | 0.0 |
| 02/06:15pm | 19.8 | 18.7 | 15.2 | 75 | 2.7 | NNE | 15 | 24 | 8 | 13 | 1023.6 | - | 0.0 |
| 02/06:00pm | 20.0 | 18.4 | 15.1 | 73 | 2.9 | NNE | 17 | 26 | 9 | 14 | 1023.5 | - | 0.0 |
| 02/05:45pm | 20.0 | 18.5 | 15.2 | 74 | 2.8 | NNE | 17 | 26 | 9 | 14 | 1023.5 | - | 0.0 |
| 02/05:30pm | 20.1 | 19.0 | 15.3 | 74 | 2.9 | NE | 15 | 24 | 8 | 13 | 1023.3 | - | 0.0 |
| 02/05:15pm | 20.3 | 19.2 | 15.3 | 73 | 3.0 | NE | 15 | 28 | 8 | 15 | 1023.3 | - | 0.0 |
| 02/05:00pm | 20.5 | 18.7 | 15.4 | 72 | 3.0 | NNE | 19 | 28 | 10 | 15 | 1023.4 | - | 0.0 |
| 02/04:45pm | 20.8 | 19.3 | 15.4 | 71 | 3.2 | NNE | 17 | 28 | 9 | 15 | 1023.4 | - | 0.0 |
| 02/04:30pm | 21.0 | 19.5 | 15.2 | 69 | 3.5 | NNE | 17 | 24 | 9 | 13 | 1023.4 | - | 0.0 |
| 02/04:15pm | 21.2 | 19.3 | 15.1 | 68 | 3.6 | NNE | 19 | 33 | 10 | 18 | 1023.2 | - | 0.0 |
| 02/04:00pm | 21.4 | 20.2 | 15.0 | 67 | 3.8 | NNE | 15 | 24 | 8 | 13 | 1023.3 | - | 0.0 |
| 02/03:45pm | 21.6 | 20.0 | 15.1 | 66 | 3.9 | NNE | 17 | 26 | 9 | 14 | 1023.4 | - | 0.0 |
| 02/03:30pm | 21.9 | 20.4 | 15.2 | 65 | 4.0 | NNE | 17 | 30 | 9 | 16 | 1023.4 | - | 0.0 |
| 02/03:15pm | 22.1 | 20.1 | 15.5 | 66 | 4.0 | NNE | 20 | 33 | 11 | 18 | 1023.5 | - | 0.0 |
| 02/03:00pm | 22.2 | 21.5 | 15.4 | 65 | 4.1 | NNE | 13 | 24 | 7 | 13 | 1023.4 | - | 0.0 |
| 02/02:45pm | 22.1 | 20.2 | 15.3 | 65 | 4.1 | NNE | 19 | 30 | 10 | 16 | 1023.3 | - | 0.0 |
| 02/02:30pm | 22.3 | 20.4 | 15.3 | 64 | 4.2 | N | 19 | 30 | 10 | 16 | 1023.4 | - | 0.0 |
| 02/02:15pm | 22.2 | 21.2 | 15.6 | 66 | 4.0 | N | 15 | 28 | 8 | 15 | 1023.5 | - | 0.0 |
| 02/02:00pm | 22.0 | 21.4 | 15.6 | 67 | 3.9 | N | 13 | 26 | 7 | 14 | 1023.5 | - | 0.0 |
| 02/01:45pm | 21.9 | 21.0 | 15.8 | 68 | 3.7 | N | 15 | 30 | 8 | 16 | 1023.6 | - | 0.0 |
| 02/01:30pm | 22.2 | 22.2 | 16.3 | 69 | 3.6 | N | 11 | 22 | 6 | 12 | 1023.8 | - | 0.0 |
| 02/01:15pm | 21.9 | 20.3 | 16.1 | 69 | 3.5 | NNE | 19 | 30 | 10 | 16 | 1024.0 | - | 0.0 |
| 02/01:00pm | 21.4 | 21.2 | 16.7 | 74 | 2.9 | NNE | 13 | 30 | 7 | 16 | 1024.3 | - | 0.0 |
| 02/12:45pm | 20.7 | 20.5 | 16.6 | 77 | 2.5 | NNE | 13 | 19 | 7 | 10 | 1024.6 | - | 0.0 |
| 02/12:30pm | 20.1 | 19.6 | 16.0 | 77 | 2.5 | N | 13 | 28 | 7 | 15 | 1025.0 | - | 0.0 |
| 02/12:15pm | 21.6 | 21.1 | 15.8 | 69 | 3.5 | NNE | 13 | 32 | 7 | 17 | 1025.0 | - | 0.0 |
| 02/12:00pm | 22.4 | 22.7 | 15.9 | 66 | 3.9 | N | 9 | 20 | 5 | 11 | 1025.2 | - | 0.0 |
| 02/11:45am | 22.1 | 22.4 | 16.0 | 68 | 3.7 | NNW | 9 | 20 | 5 | 11 | 1025.6 | - | 0.0 |
| 02/11:15am | 22.2 | 22.5 | 16.1 | 68 | 3.7 | NNW | 9 | 20 | 5 | 11 | 1026.0 | - | 0.0 |
| 02/11:00am | 21.7 | 22.0 | 16.0 | 70 | 3.4 | N | 9 | 20 | 5 | 11 | 1026.0 | - | 0.0 |
| 02/10:45am | 21.6 | 21.9 | 15.9 | 70 | 3.4 | NNW | 9 | 19 | 5 | 10 | 1026.1 | - | 0.0 |
| 02/10:30am | 21.7 | 22.1 | 16.2 | 71 | 3.3 | NNW | 9 | 19 | 5 | 10 | 1026.3 | - | 0.0 |
| 02/10:15am | 20.9 | 21.2 | 15.9 | 73 | 3.0 | NW | 9 | 13 | 5 | 7 | 1026.4 | - | 0.0 |
| 02/10:00am | 20.1 | 20.7 | 15.7 | 76 | 2.6 | WNW | 7 | 13 | 4 | 7 | 1026.6 | - | 0.0 |
| 02/09:45am | 19.8 | 20.4 | 15.7 | 77 | 2.4 | WNW | 7 | 13 | 4 | 7 | 1026.7 | - | 0.0 |
| 02/09:30am | 19.3 | 19.9 | 15.7 | 79 | 2.1 | NW | 7 | 11 | 4 | 6 | 1026.9 | - | 0.0 |
| 02/09:15am | 19.3 | 20.1 | 15.8 | 80 | 2.1 | NNW | 6 | 11 | 3 | 6 | 1026.9 | - | 0.0 |
| 02/09:00am | 19.1 | 19.8 | 15.7 | 80 | 2.0 | NW | 6 | 9 | 3 | 5 | 1026.7 | - | 0.4 |
| 02/08:45am | 19.0 | 19.7 | 15.7 | 81 | 2.0 | WNW | 6 | 11 | 3 | 6 | 1026.7 | - | 0.4 |
| 02/08:30am | 19.1 | 19.6 | 16.5 | 85 | 1.6 | WNW | 9 | 15 | 5 | 8 | 1026.6 | - | 0.4 |
| 02/08:15am | 17.9 | 18.5 | 16.8 | 93 | 0.7 | WNW | 9 | 13 | 5 | 7 | 1026.6 | - | 0.4 |
| 02/08:00am | 16.7 | 16.8 | 15.6 | 93 | 0.6 | WNW | 9 | 13 | 5 | 7 | 1026.6 | - | 0.4 |
| 02/07:45am | 16.2 | 16.5 | 15.1 | 93 | 0.6 | WNW | 7 | 11 | 4 | 6 | 1026.5 | - | 0.4 |
| 02/07:30am | 16.2 | 16.7 | 15.1 | 93 | 0.6 | WNW | 6 | 9 | 3 | 5 | 1026.4 | - | 0.4 |
| 02/07:15am | 16.2 | 16.2 | 15.2 | 94 | 0.6 | WNW | 9 | 13 | 5 | 7 | 1026.5 | - | 0.4 |
| 02/07:00am | 15.5 | 15.2 | 14.4 | 93 | 0.6 | WNW | 9 | 11 | 5 | 6 | 1026.5 | - | 0.4 |
| 02/06:45am | 15.6 | 15.3 | 14.5 | 93 | 0.6 | WNW | 9 | 11 | 5 | 6 | 1026.4 | - | 0.4 |
| 02/06:30am | 15.4 | 15.1 | 14.3 | 93 | 0.6 | WNW | 9 | 11 | 5 | 6 | 1026.3 | - | 0.4 |
| 02/06:15am | 15.3 | 15.3 | 14.1 | 92 | 0.7 | WNW | 7 | 11 | 4 | 6 | 1026.3 | - | 0.4 |
| 02/06:00am | 15.2 | 15.3 | 13.9 | 92 | 0.7 | W | 6 | 9 | 3 | 5 | 1026.1 | - | 0.4 |
| 02/05:45am | 15.4 | 15.6 | 14.2 | 92 | 0.7 | W | 6 | 11 | 3 | 6 | 1026.1 | - | 0.4 |
| 02/05:30am | 15.5 | 15.2 | 14.4 | 93 | 0.6 | WNW | 9 | 24 | 5 | 13 | 1026.0 | - | 0.4 |
| 02/05:15am | 15.2 | 14.8 | 14.0 | 92 | 0.7 | WNW | 9 | 19 | 5 | 10 | 1026.2 | - | 0.4 |
| 02/05:00am | 15.1 | 14.2 | 13.8 | 92 | 0.7 | N | 11 | 19 | 6 | 10 | 1026.4 | - | 0.2 |
| 02/04:45am | 15.0 | 14.1 | 13.6 | 91 | 0.8 | NNE | 11 | 17 | 6 | 9 | 1026.2 | - | 0.0 |
| 02/04:30am | 14.7 | 14.0 | 13.2 | 91 | 0.8 | NE | 9 | 11 | 5 | 6 | 1026.0 | - | 0.0 |
| 02/04:15am | 15.1 | 14.9 | 13.7 | 91 | 0.8 | NNE | 7 | 9 | 4 | 5 | 1026.0 | - | 0.0 |
| 02/04:00am | 14.8 | 14.6 | 13.5 | 92 | 0.7 | N | 7 | 11 | 4 | 6 | 1025.9 | - | 0.0 |
| 02/03:45am | 14.7 | 14.4 | 13.4 | 92 | 0.7 | NNW | 7 | 15 | 4 | 8 | 1025.9 | - | 0.0 |
| 02/03:30am | 14.3 | 14.1 | 13.0 | 92 | 0.7 | NW | 6 | 9 | 3 | 5 | 1025.9 | - | 0.0 |
| 02/03:15am | 14.1 | 13.8 | 12.7 | 91 | 0.8 | NW | 6 | 7 | 3 | 4 | 1026.1 | - | 0.0 |
| 02/03:00am | 14.1 | 13.8 | 12.6 | 91 | 0.8 | NW | 6 | 7 | 3 | 4 | 1026.1 | - | 0.0 |
| 02/02:45am | 14.2 | 13.9 | 12.7 | 91 | 0.8 | WNW | 6 | 7 | 3 | 4 | 1026.2 | - | 0.0 |
| 02/02:30am | 14.5 | 14.3 | 13.0 | 91 | 0.8 | WNW | 6 | 7 | 3 | 4 | 1026.4 | - | 0.0 |
| 02/02:15am | 14.5 | 14.3 | 13.1 | 91 | 0.8 | NW | 6 | 7 | 3 | 4 | 1026.6 | - | 0.0 |
| 02/02:00am | 14.3 | 14.1 | 13.0 | 92 | 0.7 | WNW | 6 | 7 | 3 | 4 | 1026.8 | - | 0.0 |
| 02/01:45am | 14.2 | 13.7 | 12.8 | 91 | 0.8 | WNW | 7 | 9 | 4 | 5 | 1026.9 | - | 0.0 |
| 02/01:30am | 14.0 | 13.6 | 12.5 | 91 | 0.8 | NW | 6 | 6 | 3 | 3 | 1026.9 | - | 0.0 |
| 02/01:15am | 14.0 | 14.0 | 12.4 | 90 | 0.9 | NW | 4 | 6 | 2 | 3 | 1027.0 | - | 0.0 |
| 02/01:00am | 14.3 | 14.0 | 12.7 | 90 | 0.9 | WNW | 6 | 9 | 3 | 5 | 1027.1 | - | 0.0 |
| 02/12:45am | 14.4 | 14.1 | 12.8 | 90 | 0.9 | NW | 6 | 7 | 3 | 4 | 1027.3 | - | 0.0 |
| 02/12:30am | 14.3 | 14.4 | 12.6 | 89 | 0.9 | N | 4 | 6 | 2 | 3 | 1027.4 | - | 0.0 |
| 02/12:15am | 14.4 | 14.5 | 12.6 | 89 | 1.0 | N | 4 | 6 | 2 | 3 | 1027.4 | - | 0.0 |
| 02/12:00am | 14.7 | 14.9 | 13.0 | 89 | 0.9 | NNE | 4 | 7 | 2 | 4 | 1027.5 | - | 0.0 |
| Date/Time EST |
Temp °C |
App Temp °C |
Dew Point °C |
Rel Hum % |
Delta-T °C |
Wind | Press QNH hPa |
Press MSL hPa |
Rain since 9am mm |
||||
|---|---|---|---|---|---|---|---|---|---|---|---|---|---|
| Dir | Spd km/h |
Gust km/h |
Spd kts |
Gust kts |
|||||||||
| 01/11:45pm | 14.4 | 14.5 | 12.8 | 90 | 0.9 | ENE | 4 | 9 | 2 | 5 | 1027.7 | - | 0.0 |
| 01/11:30pm | 14.1 | 13.7 | 12.4 | 89 | 0.9 | ENE | 6 | 7 | 3 | 4 | 1027.8 | - | 0.0 |
| 01/11:15pm | 14.2 | 13.7 | 12.6 | 90 | 0.9 | ENE | 7 | 13 | 4 | 7 | 1027.9 | - | 0.0 |
| 01/11:00pm | 13.9 | 13.9 | 12.3 | 90 | 0.9 | ENE | 4 | 6 | 2 | 3 | 1028.0 | - | 0.0 |
| 01/10:45pm | 14.2 | 13.9 | 12.8 | 91 | 0.8 | ENE | 6 | 6 | 3 | 3 | 1028.0 | - | 0.0 |
| 01/10:30pm | 13.6 | 13.1 | 12.1 | 91 | 0.8 | ENE | 6 | 7 | 3 | 4 | 1027.9 | - | 0.0 |
| 01/10:15pm | 13.5 | 12.7 | 11.8 | 89 | 0.9 | E | 7 | 7 | 4 | 4 | 1028.1 | - | 0.0 |
| 01/10:00pm | 13.6 | 13.0 | 11.8 | 89 | 1.0 | E | 6 | 7 | 3 | 4 | 1028.3 | - | 0.0 |
| 01/09:45pm | 13.8 | 13.3 | 12.0 | 89 | 1.0 | E | 6 | 7 | 3 | 4 | 1028.3 | - | 0.0 |
| 01/09:30pm | 14.1 | 13.6 | 12.2 | 88 | 1.0 | ENE | 6 | 7 | 3 | 4 | 1028.4 | - | 0.0 |
| 01/09:15pm | 14.2 | 13.7 | 12.2 | 88 | 1.1 | E | 6 | 7 | 3 | 4 | 1028.2 | - | 0.0 |
| 01/09:00pm | 14.4 | 14.0 | 12.4 | 88 | 1.1 | ENE | 6 | 7 | 3 | 4 | 1028.2 | - | 0.0 |
| 01/08:45pm | 14.4 | 14.0 | 12.3 | 87 | 1.1 | E | 6 | 7 | 3 | 4 | 1028.1 | - | 0.0 |
| 01/08:30pm | 14.5 | 14.0 | 12.1 | 85 | 1.3 | ENE | 6 | 7 | 3 | 4 | 1028.2 | - | 0.0 |
| 01/08:15pm | 15.0 | 14.6 | 12.4 | 84 | 1.4 | NE | 6 | 7 | 3 | 4 | 1028.1 | - | 0.0 |
| 01/08:00pm | 15.6 | 15.3 | 12.6 | 82 | 1.7 | NE | 6 | 7 | 3 | 4 | 1028.1 | - | 0.0 |
| 01/07:45pm | 15.9 | 15.4 | 12.8 | 82 | 1.7 | NE | 7 | 7 | 4 | 4 | 1028.1 | - | 0.0 |
| 01/07:30pm | 16.1 | 15.6 | 12.8 | 81 | 1.8 | NE | 7 | 9 | 4 | 5 | 1028.0 | - | 0.0 |
| 01/07:15pm | 16.5 | 16.1 | 12.9 | 79 | 2.0 | NE | 7 | 9 | 4 | 5 | 1027.9 | - | 0.0 |
| 01/07:00pm | 16.8 | 16.0 | 12.9 | 78 | 2.2 | NE | 9 | 11 | 5 | 6 | 1027.8 | - | 0.0 |
| 01/06:45pm | 17.2 | 16.8 | 13.0 | 76 | 2.4 | NE | 7 | 11 | 4 | 6 | 1027.6 | - | 0.0 |
| 01/06:30pm | 17.3 | 16.4 | 12.7 | 74 | 2.6 | NE | 9 | 11 | 5 | 6 | 1027.5 | - | 0.0 |
| 01/06:15pm | 17.8 | 16.9 | 12.7 | 72 | 2.9 | NE | 9 | 11 | 5 | 6 | 1027.4 | - | 0.0 |
| 01/06:00pm | 18.1 | 16.8 | 12.5 | 70 | 3.1 | NE | 11 | 11 | 6 | 6 | 1027.3 | - | 0.0 |
| 01/05:45pm | 18.6 | 17.3 | 12.5 | 67 | 3.4 | NE | 11 | 17 | 6 | 9 | 1027.3 | - | 0.0 |
| 01/05:30pm | 19.0 | 17.3 | 12.6 | 66 | 3.6 | NE | 13 | 17 | 7 | 9 | 1027.2 | - | 0.0 |
| 01/05:15pm | 19.3 | 17.6 | 12.6 | 65 | 3.8 | NE | 13 | 19 | 7 | 10 | 1027.1 | - | 0.0 |
| 01/05:00pm | 19.9 | 18.3 | 12.8 | 63 | 4.0 | NE | 13 | 17 | 7 | 9 | 1027.1 | - | 0.0 |
| 01/04:45pm | 20.5 | 19.4 | 13.1 | 62 | 4.2 | NE | 11 | 17 | 6 | 9 | 1027.1 | - | 0.0 |
| 01/04:30pm | 21.0 | 20.4 | 13.5 | 62 | 4.3 | NE | 9 | 13 | 5 | 7 | 1027.2 | - | 0.0 |
| 01/04:15pm | 21.0 | 20.1 | 13.6 | 62 | 4.3 | NE | 11 | 17 | 6 | 9 | 1027.3 | - | 0.0 |
| 01/04:00pm | 20.4 | 19.0 | 13.4 | 64 | 4.0 | NE | 13 | 19 | 7 | 10 | 1027.4 | - | 0.0 |
| 01/03:45pm | 21.0 | 20.4 | 13.5 | 62 | 4.3 | ENE | 9 | 17 | 5 | 9 | 1027.4 | - | 0.0 |
| 01/03:30pm | 21.3 | 21.7 | 13.6 | 61 | 4.5 | ENE | 4 | 7 | 2 | 4 | 1027.5 | - | 0.0 |
| 01/03:15pm | 21.2 | 21.6 | 13.6 | 62 | 4.4 | NNE | 4 | 6 | 2 | 3 | 1027.5 | - | 0.0 |
| 01/03:00pm | 21.2 | 21.6 | 13.7 | 62 | 4.4 | N | 4 | 7 | 2 | 4 | 1027.5 | - | 0.0 |
| 01/02:45pm | 21.1 | 21.4 | 13.4 | 61 | 4.4 | N | 4 | 7 | 2 | 4 | 1027.5 | - | 0.0 |
| 01/02:30pm | 21.2 | 21.2 | 13.7 | 62 | 4.4 | N | 6 | 7 | 3 | 4 | 1027.6 | - | 0.0 |
| 01/02:15pm | 21.3 | 21.8 | 14.0 | 63 | 4.3 | N | 4 | 7 | 2 | 4 | 1027.7 | - | 0.0 |
| 01/02:00pm | 21.1 | 21.8 | 14.5 | 66 | 3.9 | NNE | 4 | 7 | 2 | 4 | 1027.9 | - | 0.0 |
| 01/01:45pm | 20.7 | 21.6 | 15.0 | 70 | 3.4 | NE | 4 | 7 | 2 | 4 | 1028.0 | - | 0.0 |
| 01/01:30pm | 19.8 | 20.0 | 14.6 | 72 | 3.0 | NNE | 7 | 13 | 4 | 7 | 1028.3 | - | 0.0 |
| 01/01:15pm | 19.7 | 18.7 | 14.6 | 72 | 3.0 | NE | 13 | 20 | 7 | 11 | 1028.5 | - | 0.0 |
| 01/01:00pm | 20.2 | 19.5 | 14.2 | 68 | 3.5 | NE | 11 | 17 | 6 | 9 | 1028.5 | - | 0.0 |
| 01/12:45pm | 20.9 | 20.7 | 13.7 | 63 | 4.2 | NNE | 7 | 11 | 4 | 6 | 1028.7 | - | 0.0 |
| 01/12:30pm | 21.2 | 20.7 | 13.7 | 62 | 4.4 | N | 9 | 17 | 5 | 9 | 1028.8 | - | 0.0 |
| 01/12:15pm | 21.8 | 20.9 | 13.8 | 60 | 4.7 | N | 11 | 19 | 6 | 10 | 1029.0 | - | 0.0 |
| 01/12:00pm | 21.7 | 21.2 | 13.9 | 61 | 4.6 | N | 9 | 19 | 5 | 10 | 1029.3 | - | 0.0 |
| 01/11:45am | 21.8 | 21.4 | 14.0 | 61 | 4.6 | N | 9 | 17 | 5 | 9 | 1029.6 | - | 0.0 |
| 01/11:30am | 21.7 | 21.3 | 14.1 | 62 | 4.5 | NNW | 9 | 15 | 5 | 8 | 1029.8 | - | 0.0 |
| 01/11:15am | 21.6 | 21.5 | 14.0 | 62 | 4.4 | NNW | 7 | 17 | 4 | 9 | 1030.0 | - | 0.0 |
| 01/11:00am | 21.9 | 22.1 | 14.6 | 63 | 4.3 | WNW | 7 | 13 | 4 | 7 | 1030.1 | - | 0.0 |
| 01/10:45am | 21.8 | 22.9 | 15.6 | 68 | 3.7 | NW | 4 | 7 | 2 | 4 | 1030.2 | - | 0.0 |
| 01/10:30am | 20.6 | 21.6 | 15.3 | 71 | 3.2 | WNW | 4 | 7 | 2 | 4 | 1030.5 | - | 0.0 |
| 01/10:15am | 20.2 | 21.8 | 16.0 | 77 | 2.5 | SSW | 2 | 6 | 1 | 3 | 1030.5 | - | 0.0 |
| 01/10:00am | 19.6 | 20.8 | 15.9 | 79 | 2.2 | SW | 4 | 7 | 2 | 4 | 1030.5 | - | 0.0 |
| 01/09:45am | 18.8 | 19.9 | 15.6 | 82 | 1.9 | SW | 4 | 7 | 2 | 4 | 1030.6 | - | 0.0 |
| 01/09:30am | 18.0 | 18.6 | 15.3 | 84 | 1.6 | S | 6 | 7 | 3 | 4 | 1030.8 | - | 0.0 |
| 01/09:15am | 17.2 | 18.0 | 14.8 | 86 | 1.4 | SE | 4 | 6 | 2 | 3 | 1030.9 | - | 0.0 |
| 01/09:00am | 16.5 | 16.5 | 14.3 | 87 | 1.3 | E | 7 | 13 | 4 | 7 | 1030.9 | - | 0.0 |
| 01/08:45am | 16.6 | 17.0 | 14.8 | 89 | 1.0 | SW | 6 | 7 | 3 | 4 | 1030.8 | - | 0.0 |
| 01/08:30am | 15.9 | 15.6 | 14.4 | 91 | 0.9 | SW | 9 | 11 | 5 | 6 | 1030.7 | - | 0.0 |
| 01/08:15am | 15.4 | 15.3 | 14.0 | 91 | 0.8 | SSW | 7 | 11 | 4 | 6 | 1030.6 | - | 0.0 |
| 01/08:00am | 14.6 | 14.4 | 13.5 | 93 | 0.6 | SW | 7 | 9 | 4 | 5 | 1030.5 | - | 0.0 |
| 01/07:45am | 13.6 | 12.7 | 12.6 | 94 | 0.5 | SW | 9 | 11 | 5 | 6 | 1030.5 | - | 0.0 |
| 01/07:30am | 13.2 | 11.8 | 12.1 | 93 | 0.6 | SW | 11 | 13 | 6 | 7 | 1030.3 | - | 0.0 |
| 01/07:15am | 13.7 | 12.1 | 12.8 | 94 | 0.5 | SW | 13 | 13 | 7 | 7 | 1030.1 | - | 0.0 |
| 01/07:00am | 12.6 | 11.0 | 11.6 | 94 | 0.5 | SW | 11 | 13 | 6 | 7 | 1030.0 | - | 0.0 |
| 01/06:45am | 12.5 | 10.9 | 11.5 | 94 | 0.5 | SW | 11 | 11 | 6 | 6 | 1029.9 | - | 0.0 |
| 01/06:30am | 12.6 | 11.0 | 11.6 | 94 | 0.5 | SW | 11 | 11 | 6 | 6 | 1029.9 | - | 0.0 |
| 01/06:15am | 12.4 | 11.1 | 11.4 | 94 | 0.5 | SW | 9 | 11 | 5 | 6 | 1029.8 | - | 0.0 |
| 01/06:00am | 12.3 | 11.0 | 11.2 | 93 | 0.6 | SW | 9 | 11 | 5 | 6 | 1029.7 | - | 0.0 |
| 01/05:45am | 12.2 | 10.5 | 11.1 | 93 | 0.6 | SW | 11 | 11 | 6 | 6 | 1029.6 | - | 0.0 |
| 01/05:30am | 12.5 | 10.9 | 11.4 | 93 | 0.6 | SW | 11 | 13 | 6 | 7 | 1029.5 | - | 0.0 |
| 01/05:15am | 12.6 | 11.0 | 11.5 | 93 | 0.6 | WSW | 11 | 11 | 6 | 6 | 1029.3 | - | 0.0 |
| 01/05:00am | 12.7 | 11.5 | 11.5 | 92 | 0.6 | SW | 9 | 11 | 5 | 6 | 1029.2 | - | 0.0 |
| 01/04:45am | 13.0 | 12.3 | 11.9 | 93 | 0.6 | WSW | 7 | 9 | 4 | 5 | 1029.2 | - | 0.0 |
| 01/04:30am | 12.8 | 12.2 | 11.8 | 94 | 0.5 | SW | 6 | 7 | 3 | 4 | 1029.2 | - | 0.0 |
| 01/04:15am | 12.7 | 12.1 | 11.6 | 93 | 0.6 | SW | 6 | 7 | 3 | 4 | 1029.0 | - | 0.0 |
| 01/04:00am | 12.6 | 12.3 | 11.5 | 93 | 0.6 | WSW | 4 | 6 | 2 | 3 | 1028.8 | - | 0.0 |
| 01/03:45am | 12.7 | 12.0 | 11.5 | 92 | 0.6 | WSW | 6 | 7 | 3 | 4 | 1028.8 | - | 0.0 |
| 01/03:30am | 12.8 | 12.2 | 11.6 | 92 | 0.6 | W | 6 | 7 | 3 | 4 | 1029.0 | - | 0.0 |
| 01/03:15am | 13.0 | 12.5 | 11.9 | 93 | 0.6 | W | 6 | 7 | 3 | 4 | 1029.0 | - | 0.0 |
| 01/03:00am | 12.9 | 12.7 | 11.7 | 92 | 0.6 | W | 4 | 6 | 2 | 3 | 1029.1 | - | 0.0 |
| 01/02:45am | 13.1 | 12.9 | 11.9 | 92 | 0.6 | W | 4 | 6 | 2 | 3 | 1029.2 | - | 0.0 |
| 01/02:30am | 13.1 | 12.9 | 11.8 | 92 | 0.7 | W | 4 | 6 | 2 | 3 | 1029.2 | - | 0.0 |
| 01/02:15am | 13.3 | 13.2 | 12.0 | 92 | 0.7 | W | 4 | 6 | 2 | 3 | 1029.4 | - | 0.0 |
| 01/02:00am | 13.4 | 13.3 | 12.0 | 91 | 0.8 | W | 4 | 6 | 2 | 3 | 1029.6 | - | 0.0 |
| 01/01:45am | 13.5 | 13.4 | 12.1 | 91 | 0.8 | W | 4 | 6 | 2 | 3 | 1029.7 | - | 0.0 |
| 01/01:30am | 13.7 | 13.2 | 12.2 | 91 | 0.8 | W | 6 | 7 | 3 | 4 | 1029.8 | - | 0.0 |
| 01/01:15am | 14.0 | 13.5 | 12.6 | 91 | 0.8 | WNW | 7 | 7 | 4 | 4 | 1030.0 | - | 0.0 |
| 01/01:00am | 14.1 | 13.6 | 12.6 | 91 | 0.8 | WNW | 7 | 7 | 4 | 4 | 1030.1 | - | 0.0 |
| 01/12:45am | 14.3 | 14.0 | 12.6 | 89 | 0.9 | WNW | 6 | 9 | 3 | 5 | 1030.1 | - | 0.0 |
| 01/12:30am | 14.4 | 13.9 | 12.8 | 90 | 0.9 | WNW | 7 | 11 | 4 | 6 | 1030.2 | - | 0.0 |
| 01/12:15am | 14.7 | 14.3 | 13.0 | 89 | 0.9 | WNW | 7 | 11 | 4 | 6 | 1030.3 | - | 0.0 |
| 01/12:00am | 14.9 | 14.6 | 13.2 | 89 | 0.9 | WNW | 7 | 9 | 4 | 5 | 1030.5 | - | 0.0 |
| Date/Time EST |
Temp °C |
App Temp °C |
Dew Point °C |
Rel Hum % |
Delta-T °C |
Wind | Press QNH hPa |
Press MSL hPa |
Rain since 9am mm |
||||
|---|---|---|---|---|---|---|---|---|---|---|---|---|---|
| Dir | Spd km/h |
Gust km/h |
Spd kts |
Gust kts |
|||||||||
| 30/11:45pm | 14.8 | 14.6 | 13.1 | 89 | 0.9 | WNW | 6 | 7 | 3 | 4 | 1030.2 | - | 0.0 |
| 30/11:30pm | 14.9 | 14.7 | 13.1 | 89 | 1.0 | NW | 6 | 7 | 3 | 4 | 1030.2 | - | 0.0 |
| 30/11:15pm | 15.1 | 14.8 | 13.3 | 89 | 1.0 | NW | 7 | 7 | 4 | 4 | 1030.2 | - | 0.0 |
| 30/11:00pm | 15.2 | 14.9 | 13.2 | 88 | 1.1 | WNW | 7 | 7 | 4 | 4 | 1030.4 | - | 0.0 |
| 30/10:45pm | 15.4 | 15.3 | 13.4 | 88 | 1.1 | WNW | 6 | 7 | 3 | 4 | 1030.4 | - | 0.0 |
| 30/10:30pm | 15.5 | 15.8 | 13.5 | 88 | 1.1 | W | 4 | 6 | 2 | 3 | 1030.4 | - | 0.0 |
| 30/10:15pm | 15.6 | 16.0 | 13.6 | 88 | 1.1 | WNW | 4 | 6 | 2 | 3 | 1030.5 | - | 0.0 |
| 30/10:00pm | 15.6 | 16.4 | 13.6 | 88 | 1.1 | W | 2 | 4 | 1 | 2 | 1030.5 | - | 0.0 |
| 30/09:45pm | 15.7 | 16.5 | 13.7 | 88 | 1.1 | W | 2 | 4 | 1 | 2 | 1030.5 | - | 0.0 |
| 30/09:30pm | 15.6 | 16.4 | 13.6 | 88 | 1.1 | WNW | 2 | 4 | 1 | 2 | 1030.4 | - | 0.0 |
| 30/09:15pm | 15.6 | 16.7 | 13.5 | 87 | 1.2 | CALM | 0 | 4 | 0 | 2 | 1030.4 | - | 0.0 |
| 30/09:00pm | 15.7 | 16.5 | 13.6 | 87 | 1.2 | SSE | 2 | 6 | 1 | 3 | 1030.2 | - | 0.0 |
| 30/08:45pm | 15.8 | 16.9 | 13.6 | 87 | 1.2 | CALM | 0 | 4 | 0 | 2 | 1030.2 | - | 0.0 |
| 30/08:30pm | 16.0 | 17.2 | 13.7 | 86 | 1.3 | CALM | 0 | 0 | 0 | 0 | 1030.1 | - | 0.0 |
| 30/08:15pm | 16.2 | 17.3 | 13.6 | 84 | 1.5 | CALM | 0 | 4 | 0 | 2 | 1030.1 | - | 0.0 |
| 30/08:00pm | 16.5 | 17.3 | 13.8 | 84 | 1.5 | N | 2 | 4 | 1 | 2 | 1030.0 | - | 0.0 |
| 30/07:45pm | 16.7 | 17.1 | 13.8 | 83 | 1.7 | NNE | 4 | 6 | 2 | 3 | 1030.0 | - | 0.0 |
| 30/07:30pm | 16.8 | 17.2 | 13.8 | 82 | 1.7 | NE | 4 | 6 | 2 | 3 | 1029.9 | - | 0.0 |
| 30/07:15pm | 17.0 | 17.0 | 13.7 | 81 | 1.9 | NE | 6 | 7 | 3 | 4 | 1029.9 | - | 0.0 |
| 30/07:00pm | 17.5 | 17.0 | 13.9 | 79 | 2.1 | NNE | 9 | 11 | 5 | 6 | 1029.8 | - | 0.0 |
| 30/06:45pm | 17.9 | 17.1 | 14.1 | 78 | 2.2 | NNE | 11 | 13 | 6 | 7 | 1029.8 | - | 0.0 |
| 30/06:30pm | 18.2 | 17.5 | 14.3 | 78 | 2.3 | NE | 11 | 13 | 6 | 7 | 1029.7 | - | 0.0 |
| 30/06:15pm | 18.5 | 17.9 | 14.5 | 77 | 2.3 | NE | 11 | 17 | 6 | 9 | 1029.5 | - | 0.0 |
| 30/06:00pm | 18.7 | 17.7 | 14.7 | 77 | 2.3 | NE | 13 | 17 | 7 | 9 | 1029.4 | - | 0.0 |
| 30/05:45pm | 18.8 | 17.9 | 14.9 | 78 | 2.3 | NE | 13 | 20 | 7 | 11 | 1029.2 | - | 0.0 |
| 30/05:30pm | 19.0 | 18.0 | 14.7 | 76 | 2.5 | NE | 13 | 17 | 7 | 9 | 1029.1 | - | 0.0 |
| 30/05:15pm | 19.4 | 18.7 | 14.3 | 72 | 3.0 | NE | 11 | 19 | 6 | 10 | 1029.1 | - | 0.0 |
| 30/05:00pm | 19.9 | 18.5 | 14.4 | 70 | 3.2 | NE | 15 | 20 | 8 | 11 | 1029.0 | - | 0.0 |
| 30/04:45pm | 20.3 | 18.6 | 14.6 | 70 | 3.3 | NE | 17 | 26 | 9 | 14 | 1028.9 | - | 0.0 |
| 30/04:30pm | 20.9 | 18.7 | 14.5 | 67 | 3.8 | NE | 19 | 26 | 10 | 14 | 1028.9 | - | 0.0 |
| 30/04:15pm | 21.4 | 19.5 | 14.2 | 63 | 4.2 | NE | 17 | 24 | 9 | 13 | 1028.8 | - | 0.0 |
| 30/04:00pm | 21.7 | 19.7 | 13.9 | 61 | 4.6 | NE | 17 | 24 | 9 | 13 | 1028.7 | - | 0.0 |
| 30/03:45pm | 22.1 | 21.1 | 14.7 | 63 | 4.4 | ENE | 13 | 22 | 7 | 12 | 1028.7 | - | 0.0 |
| 30/03:30pm | 21.8 | 20.5 | 14.7 | 64 | 4.2 | E | 15 | 22 | 8 | 12 | 1028.7 | - | 0.0 |
| 30/03:15pm | 22.2 | 20.4 | 14.4 | 61 | 4.6 | E | 17 | 28 | 9 | 15 | 1028.6 | - | 0.0 |
| 30/03:00pm | 22.5 | 20.3 | 14.3 | 59 | 4.8 | E | 19 | 28 | 10 | 15 | 1028.7 | - | 0.0 |
| 30/02:45pm | 23.1 | 21.4 | 14.6 | 58 | 5.1 | E | 17 | 28 | 9 | 15 | 1028.7 | - | 0.0 |
| 30/02:30pm | 23.2 | 22.1 | 14.3 | 57 | 5.3 | ENE | 13 | 20 | 7 | 11 | 1028.7 | - | 0.0 |
| 30/02:15pm | 23.3 | 22.7 | 14.5 | 57 | 5.2 | E | 11 | 30 | 6 | 16 | 1028.7 | - | 0.0 |
| 30/02:00pm | 23.7 | 22.7 | 13.4 | 52 | 6.0 | ENE | 11 | 19 | 6 | 10 | 1028.7 | - | 0.0 |
| 30/01:45pm | 23.6 | 22.5 | 13.0 | 51 | 6.1 | NE | 11 | 22 | 6 | 12 | 1028.9 | - | 0.0 |
| 30/01:30pm | 23.6 | 22.7 | 13.7 | 53 | 5.8 | NNE | 11 | 19 | 6 | 10 | 1029.0 | - | 0.0 |
| 30/01:15pm | 23.0 | 21.6 | 13.5 | 55 | 5.5 | NE | 13 | 20 | 7 | 11 | 1029.2 | - | 0.0 |
| 30/01:00pm | 22.9 | 22.0 | 13.7 | 56 | 5.4 | NE | 11 | 19 | 6 | 10 | 1029.5 | - | 0.0 |
| 30/12:45pm | 22.7 | 21.8 | 13.6 | 56 | 5.3 | NE | 11 | 17 | 6 | 9 | 1029.7 | - | 0.0 |
| 30/12:30pm | 22.2 | 21.4 | 12.8 | 55 | 5.4 | NE | 9 | 17 | 5 | 9 | 1029.9 | - | 0.0 |
| 30/12:15pm | 23.4 | 23.0 | 13.1 | 52 | 6.0 | NNE | 7 | 11 | 4 | 6 | 1030.1 | - | 0.0 |
| 30/12:00pm | 23.1 | 22.6 | 12.6 | 51 | 6.0 | NNE | 7 | 13 | 4 | 7 | 1030.4 | - | 0.0 |
| 30/11:45am | 22.9 | 21.8 | 13.1 | 54 | 5.7 | NE | 11 | 17 | 6 | 9 | 1030.6 | - | 0.0 |
| 30/11:30am | 22.8 | 21.6 | 12.7 | 53 | 5.8 | NNE | 11 | 19 | 6 | 10 | 1030.7 | - | 0.0 |
| 30/11:15am | 23.0 | 22.0 | 13.3 | 54 | 5.6 | NNE | 11 | 17 | 6 | 9 | 1030.9 | - | 0.0 |
| 30/11:00am | 23.2 | 22.5 | 13.2 | 53 | 5.8 | NNE | 9 | 15 | 5 | 8 | 1031.0 | - | 0.0 |
| 30/10:45am | 22.7 | 22.1 | 13.4 | 55 | 5.4 | N | 9 | 17 | 5 | 9 | 1031.2 | - | 0.0 |
| 30/10:30am | 22.1 | 21.5 | 13.5 | 58 | 5.0 | NNE | 9 | 17 | 5 | 9 | 1031.4 | - | 0.0 |
| 30/10:15am | 22.0 | 21.5 | 13.7 | 59 | 4.8 | NE | 9 | 13 | 5 | 7 | 1031.5 | - | 0.0 |
| 30/10:00am | 22.1 | 21.6 | 13.9 | 59 | 4.8 | NE | 9 | 15 | 5 | 8 | 1031.5 | - | 0.0 |
| 30/09:45am | 22.0 | 22.1 | 14.4 | 62 | 4.5 | NE | 7 | 13 | 4 | 7 | 1031.6 | - | 0.0 |
| 30/09:30am | 21.5 | 21.7 | 14.3 | 63 | 4.2 | E | 6 | 7 | 3 | 4 | 1031.6 | - | 0.0 |
| 30/09:15am | 21.1 | 21.8 | 14.6 | 66 | 3.8 | SE | 4 | 7 | 2 | 4 | 1031.6 | - | 0.0 |
| 30/09:00am | 21.1 | 22.1 | 15.3 | 69 | 3.5 | SSW | 4 | 6 | 2 | 3 | 1031.7 | - | 0.0 |
| 30/08:45am | 20.6 | 21.7 | 15.6 | 73 | 3.0 | SW | 4 | 7 | 2 | 4 | 1031.6 | - | 0.0 |
| 30/08:30am | 19.2 | 19.6 | 15.2 | 77 | 2.4 | SW | 7 | 7 | 4 | 4 | 1031.6 | - | 0.0 |
| 30/08:15am | 18.2 | 18.4 | 14.8 | 80 | 2.0 | SSW | 7 | 9 | 4 | 5 | 1031.5 | - | 0.0 |
| 30/08:00am | 17.0 | 17.1 | 14.5 | 85 | 1.4 | SSW | 7 | 9 | 4 | 5 | 1031.5 | - | 0.0 |
| 30/07:45am | 16.1 | 15.8 | 14.4 | 90 | 1.0 | SW | 9 | 11 | 5 | 6 | 1031.5 | - | 0.0 |
| 30/07:30am | 15.0 | 14.5 | 13.7 | 92 | 0.7 | SW | 9 | 11 | 5 | 6 | 1031.4 | - | 0.0 |
| 30/07:15am | 14.3 | 13.9 | 13.0 | 92 | 0.7 | SW | 7 | 9 | 4 | 5 | 1031.3 | - | 0.0 |
| 30/07:00am | 14.2 | 13.7 | 12.8 | 91 | 0.8 | SW | 7 | 11 | 4 | 6 | 1031.1 | - | 0.0 |
| 30/06:45am | 14.3 | 13.9 | 12.9 | 91 | 0.8 | SW | 7 | 9 | 4 | 5 | 1031.0 | - | 0.0 |
| 30/06:30am | 14.3 | 14.0 | 12.8 | 91 | 0.8 | SW | 6 | 7 | 3 | 4 | 1030.9 | - | 0.0 |
| 30/06:15am | 14.4 | 14.1 | 12.8 | 90 | 0.9 | SSW | 6 | 7 | 3 | 4 | 1030.8 | - | 0.0 |
| 30/06:00am | 14.6 | 14.4 | 12.9 | 89 | 0.9 | SSW | 6 | 6 | 3 | 3 | 1030.7 | - | 0.0 |
| 30/05:45am | 14.9 | 14.8 | 13.2 | 89 | 0.9 | SSW | 6 | 7 | 3 | 4 | 1030.6 | - | 0.0 |
| 30/05:30am | 15.1 | 14.8 | 13.2 | 88 | 1.1 | S | 7 | 9 | 4 | 5 | 1030.6 | - | 0.0 |
| 30/05:15am | 15.6 | 15.1 | 13.7 | 88 | 1.1 | S | 9 | 11 | 5 | 6 | 1030.7 | - | 0.0 |
| 30/05:00am | 15.5 | 15.0 | 13.8 | 90 | 1.0 | SSE | 9 | 11 | 5 | 6 | 1030.6 | - | 0.0 |
| 30/04:45am | 15.4 | 14.8 | 13.5 | 88 | 1.1 | SSE | 9 | 9 | 5 | 5 | 1030.6 | - | 0.0 |
| 30/04:30am | 15.4 | 15.2 | 13.5 | 88 | 1.1 | S | 7 | 9 | 4 | 5 | 1030.5 | - | 0.0 |
| 30/04:15am | 15.5 | 15.3 | 13.6 | 88 | 1.1 | SSE | 7 | 9 | 4 | 5 | 1030.6 | - | 0.0 |
| 30/04:00am | 15.4 | 15.2 | 13.5 | 88 | 1.1 | SE | 7 | 17 | 4 | 9 | 1030.6 | - | 0.0 |
| 30/03:45am | 15.5 | 15.3 | 13.6 | 88 | 1.1 | NW | 7 | 11 | 4 | 6 | 1030.5 | - | 0.0 |
| 30/03:30am | 15.3 | 15.5 | 13.2 | 87 | 1.2 | W | 4 | 6 | 2 | 3 | 1030.4 | - | 0.0 |
| 30/03:15am | 15.8 | 15.8 | 13.5 | 86 | 1.3 | W | 6 | 7 | 3 | 4 | 1030.4 | - | 0.0 |
| 30/03:00am | 16.6 | 16.2 | 14.2 | 86 | 1.4 | WNW | 9 | 13 | 5 | 7 | 1030.5 | - | 0.0 |
| 30/02:45am | 16.6 | 16.0 | 14.5 | 87 | 1.2 | WNW | 11 | 17 | 6 | 9 | 1030.5 | - | 0.0 |
| 30/02:30am | 15.7 | 15.2 | 13.9 | 89 | 1.0 | NNW | 9 | 17 | 5 | 9 | 1030.6 | - | 0.0 |
| 30/02:15am | 15.5 | 15.5 | 13.6 | 88 | 1.1 | N | 6 | 13 | 3 | 7 | 1030.8 | - | 0.0 |
| 30/02:00am | 15.4 | 15.8 | 13.6 | 89 | 1.0 | NE | 4 | 7 | 2 | 4 | 1030.9 | - | 0.0 |
| 30/01:45am | 15.3 | 15.3 | 13.6 | 90 | 1.0 | E | 6 | 7 | 3 | 4 | 1030.9 | - | 0.0 |
| 30/01:30am | 14.9 | 14.7 | 13.1 | 89 | 1.0 | E | 6 | 9 | 3 | 5 | 1030.9 | - | 0.0 |
| 30/01:15am | 15.1 | 14.9 | 13.1 | 88 | 1.1 | E | 6 | 11 | 3 | 6 | 1031.0 | - | 0.0 |
| 30/01:00am | 15.5 | 15.8 | 13.5 | 88 | 1.1 | NNE | 4 | 7 | 2 | 4 | 1030.8 | - | 0.0 |
| 30/12:45am | 15.7 | 15.7 | 13.5 | 87 | 1.2 | N | 6 | 11 | 3 | 6 | 1030.8 | - | 0.0 |
| 30/12:30am | 16.2 | 16.1 | 13.9 | 86 | 1.3 | N | 7 | 11 | 4 | 6 | 1030.8 | - | 0.0 |
| 30/12:15am | 16.5 | 16.7 | 14.2 | 86 | 1.3 | NNE | 6 | 13 | 3 | 7 | 1030.8 | - | 0.0 |
| 30/12:00am | 16.7 | 16.9 | 14.3 | 86 | 1.4 | NNE | 6 | 11 | 3 | 6 | 1030.7 | - | 0.0 |
| Date/Time EST |
Temp °C |
App Temp °C |
Dew Point °C |
Rel Hum % |
Delta-T °C |
Wind | Press QNH hPa |
Press MSL hPa |
Rain since 9am mm |
||||
|---|---|---|---|---|---|---|---|---|---|---|---|---|---|
| Dir | Spd km/h |
Gust km/h |
Spd kts |
Gust kts |
|||||||||
| 29/11:45pm | 16.7 | 16.8 | 14.5 | 87 | 1.3 | NNE | 7 | 11 | 4 | 6 | 1030.9 | - | 0.0 |
Latest Capital City Observations: Canberra | Sydney | Melbourne | Brisbane | Adelaide | Perth | Hobart | Darwin
Other formats
Comma delimited format used in spreadsheet applications
http://www.bom.gov.au/fwo/IDN60901/IDN60901.95757.axf
JavaScript Object Notation format (JSON) in row-major order
http://www.bom.gov.au/fwo/IDN60901/IDN60901.95757.json
Data quality
Most of these data are generated automatically and are frequently updated. Quality checks on data are not normally performed. It is possible for incorrect values to appear. Refer to information at About Latest Weather Observations and please check the disclaimer before using these data.
